Time;durP1;ratioP1;P1;durP2;ratioP2;P2;SDS_P1;SDS_P2;PMS_P1;PMS_P2;Temp;Humidity;BMP_temperature;BMP_pressure;BME280_temperature;BME280_humidity;BME280_pressure;Samples;Min_cycle;Max_cycle;Signal;HPM_P1;HPM_P2
2023/09/28 00:01:12;;;;;;;;;;;24.30;99.90;;;;;;5013733;28;19917;-49
2023/09/28 00:03:38;;;;;;;;;;;24.20;99.90;;;;;;5013239;28;19919;-49
2023/09/28 00:06:04;;;;;;;;;;;24.20;99.90;;;;;;5013438;28;19909;-49
2023/09/28 00:08:29;;;;;;;;;;;24.20;99.90;;;;;;4995494;28;19905;-49
2023/09/28 00:10:55;;;;;;;;;;;24.20;99.90;;;;;;5013126;28;19905;-48
2023/09/28 00:13:21;;;;;;;;;;;24.20;99.90;;;;;;5013223;28;19906;-48
2023/09/28 00:15:46;;;;;;;;;;;24.20;99.90;;;;;;5013221;28;20417;-48
2023/09/28 00:18:12;;;;;;;;;;;24.10;99.90;;;;;;4995614;28;19905;-49
2023/09/28 00:20:38;;;;;;;;;;;24.10;99.90;;;;;;5013146;28;19905;-50
2023/09/28 00:23:04;;;;;;;;;;;24.10;99.90;;;;;;5012980;28;19917;-49
2023/09/28 00:25:29;;;;;;;;;;;24.10;99.90;;;;;;5012997;28;19913;-49
2023/09/28 00:27:58;;;;;;;;;;;24.10;99.90;;;;;;5013010;28;19913;-48
2023/09/28 00:30:26;;;;;;;;;;;24.10;99.90;;;;;;5013002;28;19959;-49
2023/09/28 00:32:52;;;;;;;;;;;24.10;99.90;;;;;;5012909;28;19995;-48
2023/09/28 00:35:18;;;;;;;;;;;24.10;99.90;;;;;;5012901;28;19928;-49
2023/09/28 00:37:44;;;;;;;;;;;24.00;99.90;;;;;;5012801;28;20406;-48
2023/09/28 00:40:21;;;;;;;;;;;24.00;99.90;;;;;;5013118;28;19928;-48
2023/09/28 00:42:50;;;;;;;;;;;24.00;99.90;;;;;;5012862;28;20367;-48
2023/09/28 00:45:16;;;;;;;;;;;24.00;99.90;;;;;;5012756;28;19905;-48
2023/09/28 00:47:42;;;;;;;;;;;24.10;99.90;;;;;;5012774;28;19906;-48
2023/09/28 00:50:09;;;;;;;;;;;24.00;99.90;;;;;;5012896;28;19913;-49
2023/09/28 00:52:36;;;;;;;;;;;24.00;99.90;;;;;;5012755;28;19906;-49
2023/09/28 00:55:02;;;;;;;;;;;24.00;99.90;;;;;;5012687;28;19988;-49
2023/09/28 00:57:29;;;;;;;;;;;24.00;99.90;;;;;;5012676;28;19912;-48
2023/09/28 00:59:55;;;;;;;;;;;24.00;99.90;;;;;;5012741;28;19906;-48
2023/09/28 01:02:22;;;;;;;;;;;24.00;99.90;;;;;;5045457;22;20402;-48
2023/09/28 01:04:48;;;;;;;;;;;23.90;99.90;;;;;;5027451;28;20004;-48
2023/09/28 01:07:24;;;;;;;;;;;23.90;99.90;;;;;;5012126;28;19995;-48
2023/09/28 01:09:49;;;;;;;;;;;23.90;99.90;;;;;;5010446;28;20446;-48
2023/09/28 01:12:15;;;;;;;;;;;23.90;99.90;;;;;;5010672;28;19999;-49
2023/09/28 01:14:41;;;;;;;;;;;23.90;99.90;;;;;;5012718;28;19905;-48
2023/09/28 01:17:09;;;;;;;;;;;23.90;99.90;;;;;;5012566;28;19912;-49
2023/09/28 01:19:35;;;;;;;;;;;23.90;99.90;;;;;;5012541;28;19944;-49
2023/09/28 01:22:02;;;;;;;;;;;23.80;99.90;;;;;;5012362;28;20327;-49
2023/09/28 01:24:29;;;;;;;;;;;23.90;99.90;;;;;;5012528;28;19905;-49
2023/09/28 01:26:54;;;;;;;;;;;23.80;99.90;;;;;;5012519;28;20272;-49
2023/09/28 01:29:20;;;;;;;;;;;23.80;99.90;;;;;;5012497;28;19905;-49
2023/09/28 01:31:45;;;;;;;;;;;23.80;99.90;;;;;;5013548;28;19912;-50
2023/09/28 01:34:11;;;;;;;;;;;23.80;99.90;;;;;;5016083;28;19909;-48
2023/09/28 01:36:37;;;;;;;;;;;23.70;99.90;;;;;;5015884;28;19905;-49
2023/09/28 01:39:07;;;;;;;;;;;23.80;99.90;;;;;;5015962;28;19905;-49
2023/09/28 01:41:33;;;;;;;;;;;23.70;99.90;;;;;;5015799;28;19905;-48
2023/09/28 01:43:59;;;;;;;;;;;23.70;99.90;;;;;;5015999;28;19912;-49
2023/09/28 01:46:25;;;;;;;;;;;23.70;99.90;;;;;;5015748;28;19909;-49
2023/09/28 01:48:50;;;;;;;;;;;23.70;99.90;;;;;;5015755;28;20280;-49
2023/09/28 01:51:16;;;;;;;;;;;23.70;99.90;;;;;;5015813;28;20276;-49
2023/09/28 01:53:41;;;;;;;;;;;23.60;99.90;;;;;;5015814;28;19912;-49
2023/09/28 01:56:07;;;;;;;;;;;23.60;99.90;;;;;;5015637;28;19912;-49
2023/09/28 01:58:33;;;;;;;;;;;23.60;99.90;;;;;;5015639;28;19905;-49
2023/09/28 02:00:59;;;;;;;;;;;23.60;99.90;;;;;;5036905;22;20411;-49
2023/09/28 02:03:25;;;;;;;;;;;23.70;99.90;;;;;;5035129;28;19960;-48
2023/09/28 02:05:52;;;;;;;;;;;23.60;99.90;;;;;;5035367;28;19995;-48
2023/09/28 02:08:18;;;;;;;;;;;23.60;99.90;;;;;;5035383;28;19951;-48
2023/09/28 02:10:44;;;;;;;;;;;23.60;99.90;;;;;;5017658;28;20361;-49
2023/09/28 02:13:09;;;;;;;;;;;23.70;99.90;;;;;;5035237;28;19940;-48
2023/09/28 02:15:35;;;;;;;;;;;23.60;99.90;;;;;;5033902;28;19994;-48
2023/09/28 02:18:01;;;;;;;;;;;23.60;99.90;;;;;;5035043;28;20324;-48
2023/09/28 02:20:27;;;;;;;;;;;23.60;99.90;;;;;;5017209;28;19912;-48
2023/09/28 02:22:52;;;;;;;;;;;23.60;99.90;;;;;;5034854;28;19913;-48
2023/09/28 02:25:21;;;;;;;;;;;23.60;99.90;;;;;;5017246;28;19999;-48
2023/09/28 02:27:47;;;;;;;;;;;23.60;99.90;;;;;;5034971;28;20428;-48
2023/09/28 02:30:17;;;;;;;;;;;23.60;99.90;;;;;;5035026;28;19909;-49
2023/09/28 02:32:43;;;;;;;;;;;23.60;99.90;;;;;;5035033;28;20004;-49
2023/09/28 02:35:10;;;;;;;;;;;23.60;99.90;;;;;;5034771;28;19911;-49
2023/09/28 02:37:36;;;;;;;;;;;23.60;99.90;;;;;;5034629;28;19952;-49
2023/09/28 02:40:05;;;;;;;;;;;23.60;99.90;;;;;;5016822;28;19916;-48
2023/09/28 02:42:31;;;;;;;;;;;23.60;99.90;;;;;;5034594;28;19920;-48
2023/09/28 02:44:57;;;;;;;;;;;23.60;99.90;;;;;;5034576;28;19905;-48
2023/09/28 02:47:23;;;;;;;;;;;23.60;99.90;;;;;;5034542;28;19975;-49
2023/09/28 02:49:48;;;;;;;;;;;23.60;99.90;;;;;;5034331;28;19908;-48
2023/09/28 02:52:14;;;;;;;;;;;23.60;99.90;;;;;;5034731;28;19931;-49
2023/09/28 02:54:40;;;;;;;;;;;23.60;99.90;;;;;;5016598;28;19912;-48
2023/09/28 02:57:05;;;;;;;;;;;23.60;99.90;;;;;;5034280;28;20393;-48
2023/09/28 02:59:32;;;;;;;;;;;23.50;99.90;;;;;;5034136;28;19909;-48
2023/09/28 03:01:57;;;;;;;;;;;23.50;99.90;;;;;;5016814;28;20375;-48
2023/09/28 03:04:24;;;;;;;;;;;23.50;99.90;;;;;;5034213;28;20003;-49
2023/09/28 03:06:52;;;;;;;;;;;23.50;99.90;;;;;;5016389;28;19905;-49
2023/09/28 03:09:17;;;;;;;;;;;23.50;99.90;;;;;;5034352;28;19905;-49
2023/09/28 03:11:43;;;;;;;;;;;23.50;99.90;;;;;;5034196;28;20266;-49
2023/09/28 03:14:10;;;;;;;;;;;23.50;99.90;;;;;;5033830;28;19905;-49
2023/09/28 03:16:36;;;;;;;;;;;23.50;99.90;;;;;;5034024;28;20251;-48
2023/09/28 03:19:02;;;;;;;;;;;23.40;99.90;;;;;;5033799;28;20003;-48
2023/09/28 03:21:30;;;;;;;;;;;23.50;99.90;;;;;;5033748;28;19912;-49
2023/09/28 03:23:59;;;;;;;;;;;23.40;99.90;;;;;;5033925;28;20281;-48
2023/09/28 03:26:25;;;;;;;;;;;23.50;99.90;;;;;;5033598;28;20005;-48
2023/09/28 03:28:50;;;;;;;;;;;23.50;99.90;;;;;;5033854;28;19944;-49
2023/09/28 03:31:16;;;;;;;;;;;23.40;99.90;;;;;;5033993;28;20386;-49
2023/09/28 03:33:42;;;;;;;;;;;23.40;99.90;;;;;;5033472;28;19970;-49
2023/09/28 03:36:07;;;;;;;;;;;23.40;99.90;;;;;;5033471;28;20282;-48
2023/09/28 03:38:33;;;;;;;;;;;23.40;99.90;;;;;;5033630;28;19905;-49
2023/09/28 03:40:59;;;;;;;;;;;23.40;99.90;;;;;;5033430;28;19905;-49
2023/09/28 03:43:24;;;;;;;;;;;23.40;99.90;;;;;;5033304;28;19924;-49
2023/09/28 03:45:50;;;;;;;;;;;23.40;99.90;;;;;;5033233;28;19905;-49
2023/09/28 03:48:16;;;;;;;;;;;23.40;99.90;;;;;;5033538;28;19909;-50
2023/09/28 03:50:42;;;;;;;;;;;23.40;99.90;;;;;;5029932;28;20022;-49
2023/09/28 03:53:07;;;;;;;;;;;23.30;99.90;;;;;;4995980;28;19906;-49
2023/09/28 03:55:33;;;;;;;;;;;23.30;99.90;;;;;;5011172;28;20413;-49
2023/09/28 03:58:02;;;;;;;;;;;23.30;99.90;;;;;;5011533;28;19912;-49
2023/09/28 04:00:28;;;;;;;;;;;23.30;99.90;;;;;;5019561;28;19967;-50
2023/09/28 04:02:54;;;;;;;;;;;23.30;99.90;;;;;;5032182;28;19948;-49
2023/09/28 04:05:20;;;;;;;;;;;23.30;99.90;;;;;;5033268;28;19905;-49
2023/09/28 04:07:46;;;;;;;;;;;23.30;99.90;;;;;;5033146;28;20011;-49
2023/09/28 04:10:11;;;;;;;;;;;23.30;99.90;;;;;;5032924;28;19956;-50
2023/09/28 04:12:37;;;;;;;;;;;23.30;99.90;;;;;;5032913;28;19905;-50
2023/09/28 04:15:03;;;;;;;;;;;23.20;99.90;;;;;;5033009;28;19920;-47
2023/09/28 04:17:29;;;;;;;;;;;23.20;99.90;;;;;;5032963;28;19905;-49
2023/09/28 04:19:55;;;;;;;;;;;23.20;99.90;;;;;;5032903;28;20381;-48
2023/09/28 04:22:20;;;;;;;;;;;23.20;99.90;;;;;;5032886;28;19967;-48
2023/09/28 04:24:46;;;;;;;;;;;23.20;99.90;;;;;;5032749;28;20372;-48
2023/09/28 04:27:11;;;;;;;;;;;23.20;99.90;;;;;;5014991;28;19913;-48
2023/09/28 04:29:38;;;;;;;;;;;23.10;99.90;;;;;;5032708;28;19905;-47
2023/09/28 04:32:03;;;;;;;;;;;23.20;99.90;;;;;;5032661;28;19905;-48
2023/09/28 04:34:29;;;;;;;;;;;23.20;99.90;;;;;;5014945;28;19912;-47
2023/09/28 04:36:55;;;;;;;;;;;23.20;99.90;;;;;;5032592;28;20271;-48
2023/09/28 04:39:24;;;;;;;;;;;23.10;99.90;;;;;;5015115;28;19941;-48
2023/09/28 04:41:55;;;;;;;;;;;23.10;99.90;;;;;;5032681;28;19909;-47
2023/09/28 04:44:23;;;;;;;;;;;23.10;99.90;;;;;;5032830;28;19972;-48
2023/09/28 04:46:50;;;;;;;;;;;23.10;99.90;;;;;;5032775;28;19951;-48
2023/09/28 04:49:16;;;;;;;;;;;23.10;99.90;;;;;;5032514;28;19905;-48
2023/09/28 04:51:42;;;;;;;;;;;23.10;99.90;;;;;;5032502;28;19948;-48
2023/09/28 04:54:07;;;;;;;;;;;23.10;99.90;;;;;;5032381;28;19944;-48
2023/09/28 04:56:33;;;;;;;;;;;23.10;99.90;;;;;;5032560;28;20289;-48
2023/09/28 04:59:02;;;;;;;;;;;23.10;99.90;;;;;;5032467;28;19905;-49
2023/09/28 05:01:28;;;;;;;;;;;23.10;99.90;;;;;;5022688;28;19972;-49
2023/09/28 05:03:54;;;;;;;;;;;23.10;99.90;;;;;;5011704;28;19920;-49
2023/09/28 05:06:20;;;;;;;;;;;23.10;99.90;;;;;;5011600;28;19906;-49
2023/09/28 05:08:45;;;;;;;;;;;23.20;99.90;;;;;;5015325;28;19916;-49
2023/09/28 05:11:11;;;;;;;;;;;23.20;99.90;;;;;;5016548;28;19913;-49
2023/09/28 05:13:37;;;;;;;;;;;23.20;99.90;;;;;;5016506;28;19905;-49
2023/09/28 05:16:02;;;;;;;;;;;23.30;99.90;;;;;;5016453;28;19906;-49
2023/09/28 05:18:29;;;;;;;;;;;23.30;99.90;;;;;;4998751;28;19952;-48
2023/09/28 05:20:55;;;;;;;;;;;23.30;99.90;;;;;;5016320;28;19983;-48
2023/09/28 05:23:20;;;;;;;;;;;23.30;99.90;;;;;;5016553;28;19969;-48
2023/09/28 05:25:46;;;;;;;;;;;23.40;99.90;;;;;;5016167;28;19958;-48
2023/09/28 05:28:12;;;;;;;;;;;23.40;99.90;;;;;;5016287;28;19912;-48
2023/09/28 05:30:37;;;;;;;;;;;23.40;99.90;;;;;;5016072;28;19905;-48
2023/09/28 05:33:03;;;;;;;;;;;23.50;99.90;;;;;;5016049;28;19905;-48
2023/09/28 05:35:29;;;;;;;;;;;23.50;99.90;;;;;;5016087;28;19913;-48
2023/09/28 05:37:55;;;;;;;;;;;23.50;99.90;;;;;;5016182;28;19905;-48
2023/09/28 05:40:21;;;;;;;;;;;23.60;99.90;;;;;;5016241;28;20359;-48
2023/09/28 05:42:48;;;;;;;;;;;23.60;99.90;;;;;;5015863;28;19920;-48
2023/09/28 05:45:14;;;;;;;;;;;23.60;99.90;;;;;;5015830;28;19952;-48
2023/09/28 05:47:39;;;;;;;;;;;23.60;99.90;;;;;;5015976;28;19910;-48
2023/09/28 05:50:05;;;;;;;;;;;23.60;99.90;;;;;;5015734;28;20255;-48
2023/09/28 05:52:31;;;;;;;;;;;23.60;99.90;;;;;;5015747;28;19905;-48
2023/09/28 05:54:57;;;;;;;;;;;23.60;99.90;;;;;;5015642;28;19977;-48
2023/09/28 05:57:22;;;;;;;;;;;23.60;99.90;;;;;;5015930;28;19960;-48
2023/09/28 05:59:48;;;;;;;;;;;23.60;99.90;;;;;;5015520;28;19906;-48
2023/09/28 06:02:14;;;;;;;;;;;23.60;99.90;;;;;;5015326;28;20255;-49
2023/09/28 06:04:43;;;;;;;;;;;23.60;99.90;;;;;;5015460;28;19973;-49
2023/09/28 06:07:10;;;;;;;;;;;23.60;99.90;;;;;;5015428;28;19912;-49
2023/09/28 06:09:36;;;;;;;;;;;23.60;99.90;;;;;;5015468;28;19905;-49
2023/09/28 06:12:02;;;;;;;;;;;23.60;99.90;;;;;;5015454;28;19912;-49
2023/09/28 06:14:27;;;;;;;;;;;23.70;99.90;;;;;;5015374;28;19905;-48
2023/09/28 06:16:53;;;;;;;;;;;23.70;99.90;;;;;;5015553;28;19987;-48
2023/09/28 06:19:19;;;;;;;;;;;23.60;99.90;;;;;;5015051;28;19905;-49
2023/09/28 06:21:45;;;;;;;;;;;23.60;99.90;;;;;;5015006;28;19905;-48
2023/09/28 06:24:11;;;;;;;;;;;23.70;99.90;;;;;;4997640;28;19952;-49
2023/09/28 06:26:37;;;;;;;;;;;23.70;99.90;;;;;;5015156;28;19968;-49
2023/09/28 06:29:03;;;;;;;;;;;23.70;99.90;;;;;;5014986;28;20417;-52
2023/09/28 06:31:29;;;;;;;;;;;23.70;99.90;;;;;;5015113;28;19960;-49
2023/09/28 06:33:55;;;;;;;;;;;23.70;99.90;;;;;;5015126;28;19905;-49
2023/09/28 06:36:21;;;;;;;;;;;23.70;99.90;;;;;;5015003;28;20291;-49
2023/09/28 06:38:47;;;;;;;;;;;23.70;99.90;;;;;;5014865;28;19905;-49
2023/09/28 06:41:13;;;;;;;;;;;23.70;99.90;;;;;;5014804;28;20000;-49
2023/09/28 06:43:39;;;;;;;;;;;23.70;99.90;;;;;;4997101;28;19920;-48
2023/09/28 06:46:05;;;;;;;;;;;23.70;99.90;;;;;;5014652;28;19906;-48
2023/09/28 06:48:30;;;;;;;;;;;23.70;99.90;;;;;;5014626;28;19909;-49
2023/09/28 06:50:57;;;;;;;;;;;23.70;99.90;;;;;;5014788;28;19916;-49
2023/09/28 06:53:23;;;;;;;;;;;23.80;99.90;;;;;;5014466;28;19916;-48
2023/09/28 06:55:49;;;;;;;;;;;23.80;99.90;;;;;;5014446;28;19928;-50
2023/09/28 06:58:15;;;;;;;;;;;23.80;99.90;;;;;;4996787;28;19905;-49
2023/09/28 07:00:41;;;;;;;;;;;23.90;99.90;;;;;;5014221;28;20367;-48
2023/09/28 07:03:08;;;;;;;;;;;23.90;99.90;;;;;;5014292;28;20282;-48
2023/09/28 07:05:34;;;;;;;;;;;23.90;99.90;;;;;;5014291;28;19905;-49
2023/09/28 07:08:00;;;;;;;;;;;24.00;99.90;;;;;;5014423;28;19909;-48
2023/09/28 07:10:27;;;;;;;;;;;24.00;99.90;;;;;;5014384;28;20361;-49
2023/09/28 07:12:53;;;;;;;;;;;24.10;99.90;;;;;;5014119;28;19905;-49
2023/09/28 07:15:18;;;;;;;;;;;24.10;99.90;;;;;;5014206;28;19905;-48
2023/09/28 07:17:44;;;;;;;;;;;24.20;99.90;;;;;;5014256;28;20328;-49
2023/09/28 07:20:11;;;;;;;;;;;24.20;99.90;;;;;;5014113;28;20263;-49
2023/09/28 07:22:37;;;;;;;;;;;24.30;99.90;;;;;;5014053;28;19913;-49
2023/09/28 07:25:03;;;;;;;;;;;24.30;99.90;;;;;;5014049;28;19905;-49
2023/09/28 07:27:32;;;;;;;;;;;24.40;99.90;;;;;;5014193;28;19960;-49
2023/09/28 07:29:59;;;;;;;;;;;24.40;99.90;;;;;;5013448;28;19912;-49
2023/09/28 07:32:26;;;;;;;;;;;24.50;99.90;;;;;;5013760;28;19936;-49
2023/09/28 07:34:52;;;;;;;;;;;24.50;99.90;;;;;;5013797;28;19976;-49
2023/09/28 07:37:18;;;;;;;;;;;24.60;99.90;;;;;;5013727;28;19912;-49
2023/09/28 07:39:44;;;;;;;;;;;24.60;99.90;;;;;;5013861;28;19906;-50
2023/09/28 07:42:09;;;;;;;;;;;24.60;99.90;;;;;;5013596;28;19916;-49
2023/09/28 07:44:35;;;;;;;;;;;24.70;99.90;;;;;;4996094;28;19909;-49
2023/09/28 07:47:01;;;;;;;;;;;24.80;99.90;;;;;;5013770;28;19906;-48
2023/09/28 07:49:27;;;;;;;;;;;24.90;99.90;;;;;;5013415;28;20059;-49
2023/09/28 07:51:55;;;;;;;;;;;24.80;99.90;;;;;;5013496;28;19921;-49
2023/09/28 07:54:20;;;;;;;;;;;24.90;99.90;;;;;;5013422;28;20232;-49
2023/09/28 07:56:46;;;;;;;;;;;25.00;99.90;;;;;;5013298;28;19912;-49
2023/09/28 07:59:12;;;;;;;;;;;25.00;99.90;;;;;;4995801;28;19912;-48
2023/09/28 08:01:38;;;;;;;;;;;25.10;99.90;;;;;;5013101;28;20008;-48
2023/09/28 08:04:04;;;;;;;;;;;25.10;99.90;;;;;;5013333;28;19921;-48
2023/09/28 08:06:29;;;;;;;;;;;25.20;99.90;;;;;;5013385;28;19953;-48
2023/09/28 08:08:55;;;;;;;;;;;25.30;99.90;;;;;;5013136;28;19905;-48
2023/09/28 08:11:20;;;;;;;;;;;25.30;99.90;;;;;;5013255;28;19909;-48
2023/09/28 08:13:46;;;;;;;;;;;25.40;99.90;;;;;;5013104;28;20547;-48
2023/09/28 08:16:12;;;;;;;;;;;25.40;99.90;;;;;;5013109;28;19912;-48
2023/09/28 08:18:37;;;;;;;;;;;25.40;99.90;;;;;;5013186;28;19912;-49
2023/09/28 08:21:03;;;;;;;;;;;25.50;99.90;;;;;;5013271;28;19910;-48
2023/09/28 08:23:30;;;;;;;;;;;25.50;99.90;;;;;;5013312;28;20020;-49
2023/09/28 08:25:56;;;;;;;;;;;25.50;99.90;;;;;;5013138;28;19905;-49
2023/09/28 08:28:22;;;;;;;;;;;25.60;99.90;;;;;;5012997;28;19959;-49
2023/09/28 08:30:48;;;;;;;;;;;25.60;99.90;;;;;;5012862;28;19905;-49
2023/09/28 08:33:15;;;;;;;;;;;25.60;99.90;;;;;;4995369;28;19989;-49
2023/09/28 08:35:46;;;;;;;;;;;25.70;99.90;;;;;;5012945;28;19905;-48
2023/09/28 08:38:12;;;;;;;;;;;25.70;99.90;;;;;;5011764;28;19992;-48
2023/09/28 08:40:39;;;;;;;;;;;25.80;99.90;;;;;;5012734;28;19912;-48
2023/09/28 08:43:06;;;;;;;;;;;25.80;99.90;;;;;;5012907;28;20278;-48
2023/09/28 08:45:32;;;;;;;;;;;25.80;99.90;;;;;;5012936;28;20388;-48
2023/09/28 08:47:58;;;;;;;;;;;25.80;99.90;;;;;;5012911;28;19906;-49
2023/09/28 08:50:27;;;;;;;;;;;25.80;99.90;;;;;;5012773;28;19989;-49
2023/09/28 08:52:54;;;;;;;;;;;25.80;99.90;;;;;;5012679;28;19906;-49
2023/09/28 08:55:21;;;;;;;;;;;25.90;99.90;;;;;;5012789;28;19952;-49
2023/09/28 08:57:46;;;;;;;;;;;25.90;99.90;;;;;;5012491;28;19905;-48
2023/09/28 09:00:13;;;;;;;;;;;25.90;99.90;;;;;;5012683;28;19913;-49
2023/09/28 09:02:42;;;;;;;;;;;25.90;99.90;;;;;;5012327;28;19917;-49
2023/09/28 09:05:08;;;;;;;;;;;26.00;99.90;;;;;;5012433;28;20061;-49
2023/09/28 09:07:36;;;;;;;;;;;26.00;99.90;;;;;;5012733;28;19905;-49
2023/09/28 09:10:01;;;;;;;;;;;26.10;99.90;;;;;;5012801;28;19905;-50
2023/09/28 09:12:32;;;;;;;;;;;26.10;99.90;;;;;;5011168;28;20355;-49
2023/09/28 09:14:58;;;;;;;;;;;26.20;99.90;;;;;;5012595;28;20047;-49
2023/09/28 09:17:33;;;;;;;;;;;26.20;99.90;;;;;;5011227;28;20378;-49
2023/09/28 09:19:59;;;;;;;;;;;26.30;99.90;;;;;;5012399;28;20003;-48
2023/09/28 09:22:25;;;;;;;;;;;26.40;99.90;;;;;;5012265;28;19917;-49
2023/09/28 09:24:54;;;;;;;;;;;26.40;99.90;;;;;;5012406;28;19912;-49
2023/09/28 09:27:30;;;;;;;;;;;26.50;99.90;;;;;;5012372;28;19909;-49
2023/09/28 09:29:57;;;;;;;;;;;26.50;99.90;;;;;;5012437;28;19905;-49
2023/09/28 09:32:24;;;;;;;;;;;26.60;99.90;;;;;;5012211;28;20259;-49
2023/09/28 09:34:52;;;;;;;;;;;26.60;99.90;;;;;;5012314;28;19952;-48
2023/09/28 09:37:19;;;;;;;;;;;26.70;99.90;;;;;;5012140;28;19905;-49
2023/09/28 09:39:45;;;;;;;;;;;26.70;99.90;;;;;;5012302;28;19937;-49
2023/09/28 09:42:11;;;;;;;;;;;26.70;99.90;;;;;;5012200;28;19913;-49
2023/09/28 09:44:37;;;;;;;;;;;26.80;99.90;;;;;;5012520;28;19912;-49
2023/09/28 09:47:02;;;;;;;;;;;26.90;99.90;;;;;;5012063;28;20281;-49
2023/09/28 09:49:28;;;;;;;;;;;26.90;99.90;;;;;;5012219;28;19909;-49
2023/09/28 09:51:54;;;;;;;;;;;27.00;99.90;;;;;;5012182;28;20278;-48
2023/09/28 09:54:20;;;;;;;;;;;27.00;99.90;;;;;;5015601;28;19905;-49
2023/09/28 09:56:47;;;;;;;;;;;27.10;99.90;;;;;;5015662;28;19974;-49
2023/09/28 09:59:16;;;;;;;;;;;27.10;99.90;;;;;;5015479;28;19917;-49
2023/09/28 10:01:47;;;;;;;;;;;27.20;99.90;;;;;;5015398;28;19917;-50
2023/09/28 10:04:19;;;;;;;;;;;27.20;99.90;;;;;;5015354;28;19914;-49
2023/09/28 10:06:50;;;;;;;;;;;27.30;99.90;;;;;;5015467;28;20359;-49
2023/09/28 10:09:17;;;;;;;;;;;27.40;99.90;;;;;;5015252;28;20008;-49
2023/09/28 10:11:45;;;;;;;;;;;27.40;99.90;;;;;;5015559;28;20382;-49
2023/09/28 10:14:11;;;;;;;;;;;27.40;99.90;;;;;;5015274;28;20363;-49
2023/09/28 10:16:37;;;;;;;;;;;27.50;99.90;;;;;;5015476;28;19912;-49
2023/09/28 10:19:04;;;;;;;;;;;27.50;99.90;;;;;;5015160;28;20286;-50
2023/09/28 10:21:34;;;;;;;;;;;27.60;99.90;;;;;;5015207;28;20427;-49
2023/09/28 10:24:07;;;;;;;;;;;27.60;99.90;;;;;;5015103;28;20361;-49
2023/09/28 10:26:33;;;;;;;;;;;27.60;99.90;;;;;;5014951;28;19963;-49
2023/09/28 10:29:03;;;;;;;;;;;27.70;99.90;;;;;;5015053;28;20256;-49
2023/09/28 10:31:29;;;;;;;;;;;27.70;99.90;;;;;;5014971;28;19905;-49
2023/09/28 10:34:02;;;;;;;;;;;27.80;99.90;;;;;;5014885;28;19905;-49
2023/09/28 10:36:28;;;;;;;;;;;27.90;99.90;;;;;;5014878;28;19905;-50
2023/09/28 10:39:08;;;;;;;;;;;27.90;99.90;;;;;;5014888;28;19948;-50
2023/09/28 10:41:35;;;;;;;;;;;27.90;99.90;;;;;;5014909;28;20003;-49
2023/09/28 10:44:10;;;;;;;;;;;28.00;99.90;;;;;;5014517;28;20322;-49
2023/09/28 10:46:37;;;;;;;;;;;28.00;99.90;;;;;;5014660;28;20260;-50
2023/09/28 10:49:03;;;;;;;;;;;28.00;99.90;;;;;;5014591;28;19996;-50
2023/09/28 10:51:29;;;;;;;;;;;28.10;99.90;;;;;;5013385;28;19912;-49
2023/09/28 10:53:55;;;;;;;;;;;28.10;99.90;;;;;;5014592;28;20410;-49
2023/09/28 10:56:21;;;;;;;;;;;28.10;99.90;;;;;;5014523;28;19911;-50
2023/09/28 10:58:46;;;;;;;;;;;28.20;99.90;;;;;;5014363;28;20263;-49
2023/09/28 11:01:12;;;;;;;;;;;28.20;99.90;;;;;;5014319;28;20391;-50
2023/09/28 11:03:38;;;;;;;;;;;28.30;99.90;;;;;;5013924;28;19971;-50
2023/09/28 11:06:04;;;;;;;;;;;28.30;99.90;;;;;;5013920;28;19928;-49
2023/09/28 11:08:31;;;;;;;;;;;28.30;99.90;;;;;;5014240;28;20097;-49
2023/09/28 11:11:01;;;;;;;;;;;28.40;99.90;;;;;;5014183;28;19905;-50
2023/09/28 11:13:27;;;;;;;;;;;28.40;99.90;;;;;;5014166;28;19912;-50
2023/09/28 11:15:56;;;;;;;;;;;28.50;99.90;;;;;;5013999;28;19909;-49
2023/09/28 11:18:23;;;;;;;;;;;28.50;99.90;;;;;;5014138;28;19913;-49
2023/09/28 11:20:48;;;;;;;;;;;28.60;99.90;;;;;;5014216;28;19905;-49
2023/09/28 11:23:14;;;;;;;;;;;28.60;99.90;;;;;;5013930;28;19913;-49
2023/09/28 11:25:41;;;;;;;;;;;28.70;99.90;;;;;;5014151;28;20379;-49
2023/09/28 11:28:07;;;;;;;;;;;28.70;99.90;;;;;;5013880;28;20012;-49
2023/09/28 11:30:33;;;;;;;;;;;28.80;99.90;;;;;;5013877;28;19960;-49
2023/09/28 11:33:02;;;;;;;;;;;28.80;99.90;;;;;;5013806;28;19905;-49
2023/09/28 11:35:30;;;;;;;;;;;28.80;99.90;;;;;;5013909;28;19906;-49
2023/09/28 11:38:06;;;;;;;;;;;28.80;99.90;;;;;;4996113;28;19912;-50
2023/09/28 11:40:32;;;;;;;;;;;28.80;99.90;;;;;;5013732;28;19959;-49
2023/09/28 11:42:59;;;;;;;;;;;28.80;99.90;;;;;;5012318;28;19914;-50
2023/09/28 11:45:34;;;;;;;;;;;28.90;99.90;;;;;;5013424;28;19909;-49
2023/09/28 11:48:05;;;;;;;;;;;28.90;99.90;;;;;;5013558;28;19906;-50
2023/09/28 11:50:31;;;;;;;;;;;28.90;99.90;;;;;;5013631;28;19996;-49
2023/09/28 11:52:57;;;;;;;;;;;29.00;99.90;;;;;;5013312;28;19941;-49
2023/09/28 11:55:23;;;;;;;;;;;29.10;99.90;;;;;;5013457;28;19951;-49
2023/09/28 11:57:48;;;;;;;;;;;29.30;99.90;;;;;;5013239;28;19906;-48
2023/09/28 12:00:18;;;;;;;;;;;29.40;99.90;;;;;;5013455;28;19905;-48
2023/09/28 12:02:45;;;;;;;;;;;29.50;99.90;;;;;;5013327;28;19917;-49
2023/09/28 12:05:11;;;;;;;;;;;29.60;99.90;;;;;;5013325;28;20278;-49
2023/09/28 12:07:36;;;;;;;;;;;29.60;99.90;;;;;;5013172;28;19959;-48
2023/09/28 12:10:04;;;;;;;;;;;29.70;99.90;;;;;;5013245;28;19909;-48
2023/09/28 12:12:30;;;;;;;;;;;29.80;99.90;;;;;;5013232;28;19905;-48
2023/09/28 12:14:55;;;;;;;;;;;29.90;99.90;;;;;;5021399;28;20270;-48
2023/09/28 12:17:22;;;;;;;;;;;29.90;99.90;;;;;;5031537;28;19963;-48
2023/09/28 12:19:47;;;;;;;;;;;29.90;99.90;;;;;;5032090;28;19999;-48
2023/09/28 12:22:13;;;;;;;;;;;30.00;99.90;;;;;;5032044;28;20357;-49
2023/09/28 12:24:40;;;;;;;;;;;30.00;99.90;;;;;;5032143;28;19951;-48
2023/09/28 12:27:06;;;;;;;;;;;30.00;99.90;;;;;;5032094;28;19938;-48
2023/09/28 12:29:32;;;;;;;;;;;30.10;99.90;;;;;;5032037;28;20015;-48
2023/09/28 12:31:58;;;;;;;;;;;30.10;99.90;;;;;;5030775;28;19952;-48
2023/09/28 12:34:26;;;;;;;;;;;30.20;99.90;;;;;;5031989;28;19915;-48
2023/09/28 12:36:53;;;;;;;;;;;30.30;99.90;;;;;;5014335;28;19959;-48
2023/09/28 12:39:21;;;;;;;;;;;30.30;99.90;;;;;;5030939;28;19909;-48
2023/09/28 12:41:48;;;;;;;;;;;30.30;99.90;;;;;;5029777;28;19905;-49
2023/09/28 12:44:13;;;;;;;;;;;30.30;99.90;;;;;;5032181;28;19913;-48
2023/09/28 12:46:39;;;;;;;;;;;30.30;99.90;;;;;;5029113;28;19913;-49
2023/09/28 12:50:05;;;;;;;2.80;2.50;;;30.30;99.90;;;;;;5110001;27;20442;-48
2023/09/28 12:52:31;;;;;;;3.07;2.37;;;30.30;99.90;;;;;;5109315;28;20062;-48
2023/09/28 12:54:58;;;;;;;4.67;2.10;;;30.30;99.90;;;;;;5111492;28;20084;-48
2023/09/28 12:57:24;;;;;;;4.57;2.03;;;30.30;99.90;;;;;;5108282;28;20523;-48
2023/09/28 12:59:52;;;;;;;2.88;1.77;;;30.30;99.90;;;;;;5111145;27;20019;-48
2023/09/28 13:02:19;;;;;;;5.82;2.88;;;30.40;99.90;;;;;;5111989;28;20026;-48
2023/09/28 13:04:45;;;;;;;4.07;2.03;;;30.40;99.90;;;;;;5108465;28;20065;-48
2023/09/28 13:07:10;;;;;;;3.60;1.83;;;30.40;99.90;;;;;;5111065;28;20016;-49
2023/09/28 13:09:36;;;;;;;3.58;1.65;;;30.40;99.90;;;;;;5108396;28;20031;-49
2023/09/28 13:12:03;;;;;;;7.38;1.73;;;30.40;99.90;;;;;;5107813;28;20110;-49
2023/09/28 13:14:30;;;;;;;2.78;1.73;;;30.40;99.90;;;;;;5107908;28;20012;-48
2023/09/28 13:16:57;;;;;;;5.03;1.60;;;30.40;99.90;;;;;;5110931;27;20016;-49
2023/09/28 13:19:28;;;;;;;2.83;1.63;;;30.40;99.90;;;;;;5105416;28;20463;-48
2023/09/28 13:21:58;;;;;;;3.10;1.92;;;30.40;99.90;;;;;;5108282;28;20039;-48
2023/09/28 13:24:26;;;;;;;2.50;2.28;;;30.30;99.90;;;;;;5107637;28;20020;-47
2023/09/28 13:26:54;;;;;;;4.55;2.38;;;30.30;99.90;;;;;;5105648;28;20020;-48
2023/09/28 13:29:20;;;;;;;;;;;30.30;99.90;;;;;;5105597;28;20368;-48
2023/09/28 13:31:50;;;;;;;3.08;2.35;;;30.30;99.90;;;;;;5107894;28;19965;-49
2023/09/28 13:34:17;;;;;;;3.42;2.10;;;30.30;99.90;;;;;;5107154;28;20499;-48
2023/09/28 13:36:44;;;;;;;3.00;2.20;;;30.30;99.90;;;;;;5105830;28;20047;-49
2023/09/28 13:39:44;;;;;;;3.33;1.50;;;30.30;99.90;;;;;;5107972;28;20028;-48
2023/09/28 13:42:09;;;;;;;2.10;1.60;;;30.20;99.90;;;;;;5108536;28;20028;-48
2023/09/28 13:44:34;;;;;;;8.38;3.70;;;30.10;99.90;;;;;;5106249;28;20028;-48
2023/09/28 13:47:02;;;;;;;4.22;2.95;;;30.00;99.90;;;;;;5107580;28;20088;-47
2023/09/28 13:49:29;;;;;;;9.52;2.67;;;30.00;99.90;;;;;;5107653;28;20059;-47
2023/09/28 13:51:59;;;;;;;3.72;2.63;;;30.00;99.90;;;;;;5105696;28;20020;-49
2023/09/28 13:54:26;;;;;;;2.28;1.77;;;29.90;99.90;;;;;;5108602;28;20024;-48
2023/09/28 13:56:58;;;;;;;5.93;2.07;;;29.90;99.90;;;;;;5107741;28;20494;-48
2023/09/28 13:59:24;;;;;;;4.65;2.10;;;29.90;99.90;;;;;;5105831;28;20127;-48
2023/09/28 14:01:51;;;;;;;3.55;2.22;;;29.90;99.90;;;;;;5095727;28;20024;-48
2023/09/28 14:04:18;;;;;;;2.60;1.48;;;29.80;99.90;;;;;;5092749;28;20051;-48
2023/09/28 14:06:44;;;;;;;3.28;2.10;;;29.80;99.90;;;;;;5094507;28;20032;-47